Time;durP1;ratioP1;P1;durP2;ratioP2;P2;SDS_P1;SDS_P2;PMS_P1;PMS_P2;Temp;Humidity;BMP_temperature;BMP_pressure;BME280_temperature;BME280_humidity;BME280_pressure;Samples;Min_cycle;Max_cycle;Signal;HPM_P1;HPM_P2
2021/11/03 00:00:34;;;;;;;0.00;0.00;;;;;;;;;;5020605;28;20314;-71
2021/11/03 00:03:03;;;;;;;0.00;0.00;;;;;;;;;;5018866;28;20236;-71
2021/11/03 00:05:30;;;;;;;0.23;0.23;;;;;;;;;;5019640;28;20685;-71
2021/11/03 00:07:58;;;;;;;0.00;0.00;;;;;;;;;;5019634;28;20204;-74
2021/11/03 00:10:26;;;;;;;0.57;0.57;;;;;;;;;;5020323;28;20233;-72
2021/11/03 00:12:53;;;;;;;0.10;0.10;;;;;;;;;;5019460;28;20208;-72
2021/11/03 00:15:22;;;;;;;0.00;0.00;;;;;;;;;;5017444;28;20687;-72
2021/11/03 00:17:49;;;;;;;0.00;0.00;;;;;;;;;;5019910;28;20603;-72
2021/11/03 00:20:17;;;;;;;0.00;0.00;;;;;;;;;;5021064;28;20700;-72
2021/11/03 00:22:44;;;;;;;0.00;0.00;;;;;;;;;;5019910;28;20212;-71
2021/11/03 00:25:11;;;;;;;0.00;0.00;;;;;;;;;;5020457;28;20977;-71
2021/11/03 00:27:39;;;;;;;0.00;0.00;;;;;;;;;;5019986;28;20192;-71
2021/11/03 00:30:06;;;;;;;0.00;0.00;;;;;;;;;;5018077;28;20231;-72
2021/11/03 00:32:35;;;;;;;0.00;0.00;;;;;;;;;;5020454;28;20208;-71
2021/11/03 00:35:03;;;;;;;0.00;0.00;;;;;;;;;;5019191;28;21188;-71
2021/11/03 00:37:30;;;;;;;0.00;0.00;;;;;;;;;;5018292;28;20196;-71
2021/11/03 00:39:58;;;;;;;0.40;0.40;;;;;;;;;;5019937;28;20298;-71
2021/11/03 00:42:25;;;;;;;0.00;0.00;;;;;;;;;;5019881;28;21000;-71
2021/11/03 00:44:52;;;;;;;0.10;0.10;;;;;;;;;;5021843;28;20203;-72
2021/11/03 00:47:20;;;;;;;0.00;0.00;;;;;;;;;;5018148;28;20227;-71
2021/11/03 00:49:48;;;;;;;0.00;0.00;;;;;;;;;;5019028;28;20227;-71
2021/11/03 00:52:16;;;;;;;0.00;0.00;;;;;;;;;;5020990;28;20211;-71
2021/11/03 00:54:43;;;;;;;0.00;0.00;;;;;;;;;;5017345;28;20208;-72
2021/11/03 00:57:10;;;;;;;0.00;0.00;;;;;;;;;;5018105;28;20204;-71
2021/11/03 00:59:38;;;;;;;0.00;0.00;;;;;;;;;;5020684;28;20207;-71
2021/11/03 01:02:05;;;;;;;0.00;0.00;;;;;;;;;;5020467;28;20192;-72
2021/11/03 01:04:33;;;;;;;0.00;0.00;;;;;;;;;;5019943;28;20208;-72
2021/11/03 01:07:03;;;;;;;0.00;0.00;;;;;;;;;;5018482;28;20208;-71
2021/11/03 01:09:30;;;;;;;0.00;0.00;;;;;;;;;;5020745;28;20239;-72
2021/11/03 01:11:58;;;;;;;0.00;0.00;;;;;;;;;;5018637;28;20295;-71
2021/11/03 01:14:26;;;;;;;0.00;0.00;;;;;;;;;;5017732;28;20303;-71
2021/11/03 01:16:53;;;;;;;0.20;0.20;;;;;;;;;;5018905;28;20211;-71
2021/11/03 01:19:21;;;;;;;0.00;0.00;;;;;;;;;;5018265;28;20215;-71
2021/11/03 01:21:48;;;;;;;0.00;0.00;;;;;;;;;;5018818;28;20204;-71
2021/11/03 01:24:17;;;;;;;0.00;0.00;;;;;;;;;;5016827;28;20208;-71
2021/11/03 01:26:44;;;;;;;0.00;0.00;;;;;;;;;;5019340;28;20218;-71
2021/11/03 01:29:12;;;;;;;0.00;0.00;;;;;;;;;;5018790;28;20196;-72
2021/11/03 01:31:39;;;;;;;0.00;0.00;;;;;;;;;;5018241;28;20236;-71
2021/11/03 01:34:06;;;;;;;0.00;0.00;;;;;;;;;;5018546;28;20209;-73
2021/11/03 01:36:34;;;;;;;0.00;0.00;;;;;;;;;;5019997;28;20208;-71
2021/11/03 01:39:01;;;;;;;0.00;0.00;;;;;;;;;;5017662;28;20215;-71
2021/11/03 01:41:30;;;;;;;0.00;0.00;;;;;;;;;;5018311;28;20669;-70
2021/11/03 01:44:02;;;;;;;0.00;0.00;;;;;;;;;;5019464;28;20208;-71
2021/11/03 01:46:30;;;;;;;0.00;0.00;;;;;;;;;;5016811;28;20211;-71
2021/11/03 01:48:58;;;;;;;0.00;0.00;;;;;;;;;;5018761;28;20208;-72
2021/11/03 01:51:30;;;;;;;0.00;0.00;;;;;;;;;;5018403;28;20658;-71
2021/11/03 01:53:58;;;;;;;0.00;0.00;;;;;;;;;;5018017;28;20232;-72
2021/11/03 01:56:25;;;;;;;0.00;0.00;;;;;;;;;;5019100;28;20606;-71
2021/11/03 01:58:59;;;;;;;2.43;2.13;;;;;;;;;;5018655;28;20699;-71
2021/11/03 02:01:26;;;;;;;0.50;0.50;;;;;;;;;;5017982;28;20668;-71
2021/11/03 02:03:54;;;;;;;0.00;0.00;;;;;;;;;;5016795;28;20200;-71
2021/11/03 02:06:23;;;;;;;0.00;0.00;;;;;;;;;;5016985;28;20578;-71
2021/11/03 02:08:51;;;;;;;0.00;0.00;;;;;;;;;;5019670;28;20204;-71
2021/11/03 02:11:20;;;;;;;0.00;0.00;;;;;;;;;;5018261;28;20282;-71
2021/11/03 02:13:47;;;;;;;1.70;1.60;;;;;;;;;;5016001;28;20299;-71
2021/11/03 02:16:17;;;;;;;0.00;0.00;;;;;;;;;;5017799;28;20204;-71
2021/11/03 02:18:45;;;;;;;0.00;0.00;;;;;;;;;;5016861;28;20219;-71
2021/11/03 02:21:16;;;;;;;0.43;0.43;;;;;;;;;;5021130;28;20210;-71
2021/11/03 02:23:46;;;;;;;0.00;0.00;;;;;;;;;;5015746;28;20867;-71
2021/11/03 02:26:18;;;;;;;0.20;0.20;;;;;;;;;;5018080;28;20641;-71
2021/11/03 02:28:47;;;;;;;0.00;0.00;;;;;;;;;;5018048;28;20204;-72
2021/11/03 02:31:29;;;;;;;0.00;0.00;;;;;;;;;;5018013;28;20239;-71
2021/11/03 02:33:56;;;;;;;0.00;0.00;;;;;;;;;;5018767;28;20204;-72
2021/11/03 02:36:23;;;;;;;0.00;0.00;;;;;;;;;;5017720;28;20207;-72
2021/11/03 02:38:51;;;;;;;0.00;0.00;;;;;;;;;;5015407;28;20209;-72
2021/11/03 02:41:21;;;;;;;0.00;0.00;;;;;;;;;;5018769;28;20216;-71
2021/11/03 02:43:52;;;;;;;0.00;0.00;;;;;;;;;;5017079;28;20204;-71
2021/11/03 02:46:20;;;;;;;0.00;0.00;;;;;;;;;;5017393;28;20255;-71
2021/11/03 02:48:48;;;;;;;0.00;0.00;;;;;;;;;;5017233;28;20207;-71
2021/11/03 02:51:17;;;;;;;0.40;0.40;;;;;;;;;;5016702;28;20279;-72
2021/11/03 02:53:46;;;;;;;0.00;0.00;;;;;;;;;;5017732;28;20204;-71
2021/11/03 02:56:14;;;;;;;0.00;0.00;;;;;;;;;;5016588;28;20205;-71
2021/11/03 02:58:43;;;;;;;0.10;0.10;;;;;;;;;;5017333;28;20601;-71
2021/11/03 03:01:13;;;;;;;0.00;0.00;;;;;;;;;;5017788;28;20200;-71
2021/11/03 03:03:44;;;;;;;0.00;0.00;;;;;;;;;;5014803;28;20298;-71
2021/11/03 03:06:14;;;;;;;0.00;0.00;;;;;;;;;;5015057;28;20204;-71
2021/11/03 03:08:41;;;;;;;0.00;0.00;;;;;;;;;;5014991;28;20687;-72
2021/11/03 03:11:09;;;;;;;0.00;0.00;;;;;;;;;;5016750;28;20232;-72
2021/11/03 03:13:36;;;;;;;0.00;0.00;;;;;;;;;;5015557;28;20221;-71
2021/11/03 03:16:05;;;;;;;0.00;0.00;;;;;;;;;;5014132;28;20208;-70
2021/11/03 03:18:32;;;;;;;0.00;0.00;;;;;;;;;;5016176;28;20204;-71
2021/11/03 03:21:00;;;;;;;0.07;0.07;;;;;;;;;;5017789;28;20239;-70
2021/11/03 03:23:27;;;;;;;0.00;0.00;;;;;;;;;;5015249;28;20231;-70
2021/11/03 03:25:57;;;;;;;0.00;0.00;;;;;;;;;;5018662;28;20204;-71
2021/11/03 03:28:25;;;;;;;0.00;0.00;;;;;;;;;;5018718;28;20202;-71
2021/11/03 03:30:52;;;;;;;0.00;0.00;;;;;;;;;;5016387;28;20600;-70
2021/11/03 03:33:21;;;;;;;0.20;0.20;;;;;;;;;;5014854;28;20212;-71
2021/11/03 03:35:48;;;;;;;0.33;0.33;;;;;;;;;;5017442;28;21021;-71
2021/11/03 03:38:16;;;;;;;1.70;1.60;;;;;;;;;;5016846;28;20213;-71
2021/11/03 03:40:43;;;;;;;0.03;0.03;;;;;;;;;;5019571;28;20200;-71
2021/11/03 03:43:11;;;;;;;0.00;0.00;;;;;;;;;;5016173;28;20860;-72
2021/11/03 03:45:38;;;;;;;0.00;0.00;;;;;;;;;;5017368;28;20211;-71
2021/11/03 03:48:06;;;;;;;0.00;0.00;;;;;;;;;;5015374;28;20205;-71
2021/11/03 03:50:35;;;;;;;0.00;0.00;;;;;;;;;;5016937;28;20236;-71
2021/11/03 03:53:03;;;;;;;0.93;0.93;;;;;;;;;;5018230;28;20575;-71
2021/11/03 03:55:30;;;;;;;0.00;0.00;;;;;;;;;;5015369;28;20589;-71
2021/11/03 03:57:58;;;;;;;0.00;0.00;;;;;;;;;;5009581;28;20213;-71
2021/11/03 04:00:25;;;;;;;0.00;0.00;;;;;;;;;;5011839;28;20201;-71
2021/11/03 04:02:53;;;;;;;0.00;0.00;;;;;;;;;;5009445;28;20204;-71
2021/11/03 04:05:21;;;;;;;0.00;0.00;;;;;;;;;;5009729;28;20706;-71
2021/11/03 04:07:50;;;;;;;0.00;0.00;;;;;;;;;;5014279;28;20575;-71
2021/11/03 04:10:18;;;;;;;0.00;0.00;;;;;;;;;;5013943;28;20235;-71
2021/11/03 04:12:45;;;;;;;0.00;0.00;;;;;;;;;;5013161;28;20733;-72
2021/11/03 04:15:14;;;;;;;0.00;0.00;;;;;;;;;;5012160;28;20197;-72
2021/11/03 04:17:42;;;;;;;0.00;0.00;;;;;;;;;;5010961;28;20311;-71
2021/11/03 04:20:10;;;;;;;0.00;0.00;;;;;;;;;;5013446;28;20212;-71
2021/11/03 04:22:38;;;;;;;0.00;0.00;;;;;;;;;;5013143;28;20243;-71
2021/11/03 04:25:08;;;;;;;0.00;0.00;;;;;;;;;;5014651;28;20266;-71
2021/11/03 04:27:35;;;;;;;0.00;0.00;;;;;;;;;;5013884;28;20220;-71
2021/11/03 04:30:03;;;;;;;0.00;0.00;;;;;;;;;;5014466;28;20247;-71
2021/11/03 04:32:30;;;;;;;0.00;0.00;;;;;;;;;;5016732;28;20200;-71
2021/11/03 04:34:57;;;;;;;0.00;0.00;;;;;;;;;;5014827;28;20204;-71
2021/11/03 04:37:25;;;;;;;0.00;0.00;;;;;;;;;;5013645;28;20240;-71
2021/11/03 04:39:52;;;;;;;0.00;0.00;;;;;;;;;;5017770;28;20208;-70
2021/11/03 04:42:21;;;;;;;0.00;0.00;;;;;;;;;;5017967;28;20732;-71
2021/11/03 04:44:48;;;;;;;0.00;0.00;;;;;;;;;;5017122;28;20196;-71
2021/11/03 04:47:16;;;;;;;0.00;0.00;;;;;;;;;;5016173;28;20216;-71
2021/11/03 04:49:44;;;;;;;0.00;0.00;;;;;;;;;;5017381;28;20200;-71
2021/11/03 04:52:11;;;;;;;0.10;0.10;;;;;;;;;;5015973;28;20594;-71
2021/11/03 04:54:39;;;;;;;0.00;0.00;;;;;;;;;;5018144;28;21228;-71
2021/11/03 04:57:07;;;;;;;0.10;0.10;;;;;;;;;;5017677;28;20744;-71
2021/11/03 04:59:36;;;;;;;0.00;0.00;;;;;;;;;;5016082;28;20201;-72
2021/11/03 05:02:04;;;;;;;0.00;0.00;;;;;;;;;;5014526;28;21835;-71
2021/11/03 05:04:31;;;;;;;0.00;0.00;;;;;;;;;;5018748;28;20205;-70
2021/11/03 05:06:58;;;;;;;0.13;0.13;;;;;;;;;;5014160;28;20204;-71
2021/11/03 05:09:27;;;;;;;0.00;0.00;;;;;;;;;;5013574;28;20204;-71
2021/11/03 05:11:54;;;;;;;0.00;0.00;;;;;;;;;;5015303;28;20232;-70
2021/11/03 05:14:22;;;;;;;0.00;0.00;;;;;;;;;;5015911;28;20688;-72
2021/11/03 05:16:51;;;;;;;0.00;0.00;;;;;;;;;;5020463;28;20209;-71
2021/11/03 05:19:21;;;;;;;1.60;1.50;;;;;;;;;;5020473;28;20291;-71
2021/11/03 05:21:49;;;;;;;0.00;0.00;;;;;;;;;;5020743;28;20669;-71
2021/11/03 05:24:17;;;;;;;0.47;0.47;;;;;;;;;;5020881;28;20697;-71
2021/11/03 05:26:44;;;;;;;0.20;0.20;;;;;;;;;;5020033;28;20205;-72
2021/11/03 05:29:12;;;;;;;0.00;0.00;;;;;;;;;;5020328;28;20592;-71
2021/11/03 05:31:40;;;;;;;0.03;0.03;;;;;;;;;;5022209;28;20240;-70
2021/11/03 05:34:09;;;;;;;0.30;0.30;;;;;;;;;;5020055;28;20580;-71
2021/11/03 05:36:36;;;;;;;0.10;0.10;;;;;;;;;;5020400;28;20204;-71
2021/11/03 05:39:05;;;;;;;0.00;0.00;;;;;;;;;;5022908;28;20212;-71
2021/11/03 05:41:37;;;;;;;0.00;0.00;;;;;;;;;;5019737;28;20223;-70
2021/11/03 05:44:05;;;;;;;0.00;0.00;;;;;;;;;;5018773;28;20215;-70
2021/11/03 05:46:36;;;;;;;0.00;0.00;;;;;;;;;;5017587;28;20889;-71
2021/11/03 05:49:06;;;;;;;0.00;0.00;;;;;;;;;;5019244;28;20204;-71
2021/11/03 05:51:35;;;;;;;0.00;0.00;;;;;;;;;;5017782;28;20228;-71
2021/11/03 05:54:02;;;;;;;0.27;0.27;;;;;;;;;;5015419;28;20220;-71
2021/11/03 05:56:30;;;;;;;0.00;0.00;;;;;;;;;;5018308;28;20642;-71
2021/11/03 05:58:58;;;;;;;0.00;0.00;;;;;;;;;;5017668;28;20305;-71
2021/11/03 06:01:25;;;;;;;0.00;0.00;;;;;;;;;;5020726;28;20300;-71
2021/11/03 06:03:54;;;;;;;0.63;0.63;;;;;;;;;;5018081;28;20204;-71
2021/11/03 06:06:22;;;;;;;0.00;0.00;;;;;;;;;;5020253;28;20215;-71
2021/11/03 06:08:51;;;;;;;0.00;0.00;;;;;;;;;;5019458;28;20196;-71
2021/11/03 06:11:22;;;;;;;0.00;0.00;;;;;;;;;;5018155;28;20254;-72
2021/11/03 06:13:50;;;;;;;0.00;0.00;;;;;;;;;;5020556;28;20279;-71
2021/11/03 06:16:18;;;;;;;0.00;0.00;;;;;;;;;;5020474;28;20204;-71
2021/11/03 06:18:45;;;;;;;0.00;0.00;;;;;;;;;;5019226;28;20585;-71
2021/11/03 06:21:13;;;;;;;0.00;0.00;;;;;;;;;;5019542;28;20745;-71
2021/11/03 06:23:40;;;;;;;0.00;0.00;;;;;;;;;;5017973;28;21124;-70
2021/11/03 06:26:09;;;;;;;0.00;0.00;;;;;;;;;;5018545;28;20208;-71
2021/11/03 06:28:37;;;;;;;0.00;0.00;;;;;;;;;;5020329;28;20571;-71
2021/11/03 06:31:04;;;;;;;0.00;0.00;;;;;;;;;;5019812;28;20236;-71
2021/11/03 06:33:32;;;;;;;0.00;0.00;;;;;;;;;;5017894;28;20330;-72
2021/11/03 06:36:01;;;;;;;11.03;1.70;;;;;;;;;;5019501;28;21813;-71
2021/11/03 06:38:29;;;;;;;0.00;0.00;;;;;;;;;;5021510;28;20204;-71
2021/11/03 06:40:58;;;;;;;0.00;0.00;;;;;;;;;;5018772;28;21055;-71
2021/11/03 06:43:27;;;;;;;0.00;0.00;;;;;;;;;;5022217;28;20267;-71
2021/11/03 06:45:55;;;;;;;0.37;0.37;;;;;;;;;;5017891;28;20295;-72
2021/11/03 06:48:23;;;;;;;0.00;0.00;;;;;;;;;;5019551;28;20200;-72
2021/11/03 06:50:51;;;;;;;0.00;0.00;;;;;;;;;;5018564;28;20208;-72
2021/11/03 06:53:22;;;;;;;0.00;0.00;;;;;;;;;;5016125;28;20212;-72
2021/11/03 06:55:50;;;;;;;0.00;0.00;;;;;;;;;;5019850;28;21298;-70
2021/11/03 06:58:18;;;;;;;0.00;0.00;;;;;;;;;;5018354;28;20211;-73
2021/11/03 07:00:48;;;;;;;0.00;0.00;;;;;;;;;;5017920;28;20204;-72
2021/11/03 07:03:16;;;;;;;0.00;0.00;;;;;;;;;;5017545;28;20204;-71
2021/11/03 07:05:45;;;;;;;0.00;0.00;;;;;;;;;;5017367;28;20196;-70
2021/11/03 07:08:13;;;;;;;0.00;0.00;;;;;;;;;;5020429;28;20219;-71
2021/11/03 07:10:44;;;;;;;0.00;0.00;;;;;;;;;;5018217;28;20200;-71
2021/11/03 07:13:11;;;;;;;0.00;0.00;;;;;;;;;;5018777;28;20322;-71
2021/11/03 07:15:39;;;;;;;0.00;0.00;;;;;;;;;;5019018;28;20204;-71
2021/11/03 07:18:08;;;;;;;0.50;0.50;;;;;;;;;;5017572;28;20212;-71
2021/11/03 07:20:36;;;;;;;0.00;0.00;;;;;;;;;;5017813;28;20291;-71
2021/11/03 07:23:04;;;;;;;0.00;0.00;;;;;;;;;;5018811;28;20207;-71
2021/11/03 07:25:32;;;;;;;0.00;0.00;;;;;;;;;;5018805;28;20204;-71
2021/11/03 07:27:59;;;;;;;0.00;0.00;;;;;;;;;;5021228;28;20201;-71
2021/11/03 07:30:28;;;;;;;0.00;0.00;;;;;;;;;;5022296;28;20290;-71
2021/11/03 07:32:55;;;;;;;0.00;0.00;;;;;;;;;;5018160;28;20238;-71
2021/11/03 07:35:25;;;;;;;0.00;0.00;;;;;;;;;;5018788;28;20212;-71
2021/11/03 07:37:53;;;;;;;0.00;0.00;;;;;;;;;;5021428;28;20200;-71
2021/11/03 07:40:22;;;;;;;0.00;0.00;;;;;;;;;;5021710;28;20294;-71
2021/11/03 07:42:51;;;;;;;0.00;0.00;;;;;;;;;;5024084;28;20580;-71
2021/11/03 07:45:19;;;;;;;0.00;0.00;;;;;;;;;;5021834;28;20241;-71
2021/11/03 07:47:46;;;;;;;0.00;0.00;;;;;;;;;;5023757;28;20650;-71
2021/11/03 07:50:17;;;;;;;0.00;0.00;;;;;;;;;;5022028;28;20211;-71
2021/11/03 07:52:46;;;;;;;0.00;0.00;;;;;;;;;;5021267;28;20232;-70
2021/11/03 07:55:14;;;;;;;0.00;0.00;;;;;;;;;;5022727;28;20203;-71
2021/11/03 07:57:41;;;;;;;0.00;0.00;;;;;;;;;;5021097;28;20681;-71
2021/11/03 08:00:09;;;;;;;1.13;1.13;;;;;;;;;;5022262;28;20200;-71
2021/11/03 08:02:37;;;;;;;0.00;0.00;;;;;;;;;;5031642;28;20196;-71
2021/11/03 08:05:04;;;;;;;0.10;0.10;;;;;;;;;;5032117;28;20220;-70
2021/11/03 08:07:32;;;;;;;0.00;0.00;;;;;;;;;;5032633;28;20197;-71
2021/11/03 08:10:01;;;;;;;0.07;0.07;;;;;;;;;;5050898;28;20214;-70
2021/11/03 08:12:29;;;;;;;0.00;0.00;;;;;;;;;;5031518;28;20319;-71
2021/11/03 08:14:56;;;;;;;0.00;0.00;;;;;;;;;;5033211;28;20211;-71
2021/11/03 08:17:26;;;;;;;0.00;0.00;;;;;;;;;;5029440;28;20564;-71
2021/11/03 08:19:58;;;;;;;0.00;0.00;;;;;;;;;;5039418;28;20651;-71
2021/11/03 08:22:26;;;;;;;0.00;0.00;;;;;;;;;;5030655;28;20207;-72
2021/11/03 08:24:54;;;;;;;0.00;0.00;;;;;;;;;;5047779;28;20568;-72
2021/11/03 08:27:23;;;;;;;0.00;0.00;;;;;;;;;;5025519;28;20287;-69
2021/11/03 08:29:52;;;;;;;0.00;0.00;;;;;;;;;;5023953;28;20263;-70
2021/11/03 08:32:22;;;;;;;0.00;0.00;;;;;;;;;;5020418;28;20235;-70
2021/11/03 08:34:50;;;;;;;0.00;0.00;;;;;;;;;;5024355;28;20199;-70
2021/11/03 08:37:18;;;;;;;0.13;0.13;;;;;;;;;;5032982;28;20203;-71
2021/11/03 08:39:48;;;;;;;0.00;0.00;;;;;;;;;;5031900;28;20204;-71
2021/11/03 08:42:16;;;;;;;0.00;0.00;;;;;;;;;;5047877;28;20547;-71
2021/11/03 08:44:44;;;;;;;0.00;0.00;;;;;;;;;;5031636;28;20207;-72
2021/11/03 08:47:12;;;;;;;0.00;0.00;;;;;;;;;;5021930;28;20292;-69
2021/11/03 08:49:40;;;;;;;0.00;0.00;;;;;;;;;;5019864;28;20608;-69
2021/11/03 08:52:08;;;;;;;0.00;0.00;;;;;;;;;;5020476;28;20243;-71
2021/11/03 08:54:35;;;;;;;0.00;0.00;;;;;;;;;;5020063;28;20212;-72
2021/11/03 08:57:03;;;;;;;0.00;0.00;;;;;;;;;;5020049;28;20937;-72
2021/11/03 08:59:30;;;;;;;0.00;0.00;;;;;;;;;;5019984;28;20215;-72
2021/11/03 09:01:59;;;;;;;0.00;0.00;;;;;;;;;;5020325;28;20215;-72
2021/11/03 09:04:26;;;;;;;0.00;0.00;;;;;;;;;;5019703;28;20208;-71
2021/11/03 09:06:54;;;;;;;0.30;0.30;;;;;;;;;;5019046;28;20803;-71
2021/11/03 09:09:22;;;;;;;0.00;0.00;;;;;;;;;;5016663;28;20677;-71
2021/11/03 09:11:51;;;;;;;0.00;0.00;;;;;;;;;;5022483;28;20235;-71
2021/11/03 09:14:20;;;;;;;0.00;0.00;;;;;;;;;;5023073;28;20227;-72
2021/11/03 09:16:48;;;;;;;0.00;0.00;;;;;;;;;;5024653;28;20278;-71
2021/11/03 09:19:17;;;;;;;0.43;0.30;;;;;;;;;;5023440;28;20204;-72
2021/11/03 09:21:44;;;;;;;0.27;0.27;;;;;;;;;;5021358;28;20613;-71
2021/11/03 09:24:13;;;;;;;0.33;0.33;;;;;;;;;;5022658;28;20196;-70
2021/11/03 09:26:41;;;;;;;0.00;0.00;;;;;;;;;;5024245;28;20204;-71
2021/11/03 09:29:10;;;;;;;0.37;0.37;;;;;;;;;;5022042;28;20584;-70
2021/11/03 09:31:38;;;;;;;0.10;0.10;;;;;;;;;;5022973;28;20590;-70
2021/11/03 09:34:05;;;;;;;0.23;0.23;;;;;;;;;;5021663;28;20251;-71
2021/11/03 09:36:35;;;;;;;0.00;0.00;;;;;;;;;;5024213;28;20213;-70
2021/11/03 09:39:02;;;;;;;0.10;0.10;;;;;;;;;;5024547;28;20205;-71
2021/11/03 09:41:32;;;;;;;0.00;0.00;;;;;;;;;;5022957;28;20201;-70
2021/11/03 09:44:01;;;;;;;0.00;0.00;;;;;;;;;;5023093;28;20209;-71
2021/11/03 09:46:30;;;;;;;0.00;0.00;;;;;;;;;;5023426;28;20209;-69
2021/11/03 09:49:00;;;;;;;0.00;0.00;;;;;;;;;;5024310;28;21128;-69
2021/11/03 09:51:28;;;;;;;0.00;0.00;;;;;;;;;;5024827;28;20200;-70
2021/11/03 09:54:00;;;;;;;0.10;0.10;;;;;;;;;;5023010;28;20286;-70
2021/11/03 09:56:35;;;;;;;0.00;0.00;;;;;;;;;;5024322;28;20211;-70
2021/11/03 09:59:21;;;;;;;0.00;0.00;;;;;;;;;;5019992;28;20219;-70
2021/11/03 10:01:50;;;;;;;0.00;0.00;;;;;;;;;;5022010;28;20285;-71
2021/11/03 10:04:51;;;;;;;0.00;0.00;;;;;;;;;;5023422;28;20200;-70
2021/11/03 10:07:24;;;;;;;0.00;0.00;;;;;;;;;;4958816;28;20342;-70
2021/11/03 10:09:53;;;;;;;0.00;0.00;;;;;;;;;;4958601;28;20606;-70
2021/11/03 10:12:22;;;;;;;0.00;0.00;;;;;;;;;;4959512;28;20226;-70
2021/11/03 10:14:50;;;;;;;0.00;0.00;;;;;;;;;;4959248;28;20202;-71
2021/11/03 10:17:22;;;;;;;0.00;0.00;;;;;;;;;;4960326;28;20710;-70
2021/11/03 10:19:50;;;;;;;0.00;0.00;;;;;;;;;;4960905;28;20650;-72
2021/11/03 10:22:31;;;;;;;0.00;0.00;;;;;;;;;;4964047;28;20211;-70
2021/11/03 10:25:07;;;;;;;0.00;0.00;;;;;;;;;;4961257;28;20276;-71
2021/11/03 10:27:43;;;;;;;0.00;0.00;;;;;;;;;;4963385;28;20218;-70
2021/11/03 10:30:21;;;;;;;0.00;0.00;;;;;;;;;;4964109;28;20242;-71
2021/11/03 10:32:49;;;;;;;0.00;0.00;;;;;;;;;;4961641;28;20228;-70
2021/11/03 10:35:21;;;;;;;0.10;0.10;;;;;;;;;;4963073;28;20285;-70
2021/11/03 10:37:51;;;;;;;0.00;0.00;;;;;;;;;;4979187;28;20212;-71
2021/11/03 10:40:26;;;;;;;0.00;0.00;;;;;;;;;;5023387;28;20204;-71
2021/11/03 10:42:55;;;;;;;0.00;0.00;;;;;;;;;;5023200;28;20637;-70
2021/11/03 10:45:25;;;;;;;0.00;0.00;;;;;;;;;;5022844;28;20223;-70
2021/11/03 10:47:55;;;;;;;0.00;0.00;;;;;;;;;;5022207;28;20235;-70
2021/11/03 10:50:42;;;;;;;0.00;0.00;;;;;;;;;;5024578;28;20767;-71
2021/11/03 10:53:15;;;;;;;0.00;0.00;;;;;;;;;;5022606;28;20322;-70
2021/11/03 10:55:45;;;;;;;0.00;0.00;;;;;;;;;;5020079;28;20231;-70
2021/11/03 10:58:21;;;;;;;0.00;0.00;;;;;;;;;;5019903;28;20692;-70
2021/11/03 11:00:57;;;;;;;0.00;0.00;;;;;;;;;;5019516;28;20204;-70
2021/11/03 11:03:27;;;;;;;0.00;0.00;;;;;;;;;;5019779;28;20215;-70
2021/11/03 11:05:57;;;;;;;0.00;0.00;;;;;;;;;;5037710;28;20254;-70
2021/11/03 11:08:26;;;;;;;0.53;0.53;;;;;;;;;;5019362;28;20214;-70
2021/11/03 11:10:59;;;;;;;0.00;0.00;;;;;;;;;;5024878;28;20207;-69
2021/11/03 11:13:28;;;;;;;0.00;0.00;;;;;;;;;;5028681;28;20227;-71
2021/11/03 11:15:57;;;;;;;0.00;0.00;;;;;;;;;;5034397;28;20208;-70
2021/11/03 11:18:38;;;;;;;0.00;0.00;;;;;;;;;;5029943;28;20214;-71
2021/11/03 11:21:09;;;;;;;0.00;0.00;;;;;;;;;;5031972;28;20253;-70
2021/11/03 11:23:38;;;;;;;0.57;0.57;;;;;;;;;;5041613;28;20208;-71
2021/11/03 11:26:22;;;;;;;0.10;0.10;;;;;;;;;;5030505;28;20677;-70
2021/11/03 11:28:53;;;;;;;0.37;0.37;;;;;;;;;;5032767;28;20219;-70
2021/11/03 11:31:25;;;;;;;0.00;0.00;;;;;;;;;;5032983;28;20232;-70
2021/11/03 11:33:58;;;;;;;0.00;0.00;;;;;;;;;;5031746;28;20573;-71
2021/11/03 11:36:30;;;;;;;0.00;0.00;;;;;;;;;;5027487;28;20217;-70
2021/11/03 11:39:03;;;;;;;0.10;0.10;;;;;;;;;;5027952;28;20208;-70
2021/11/03 11:41:34;;;;;;;0.00;0.00;;;;;;;;;;5024073;28;20204;-71
2021/11/03 11:44:04;;;;;;;0.00;0.00;;;;;;;;;;5021370;28;20212;-70
2021/11/03 11:46:33;;;;;;;0.00;0.00;;;;;;;;;;5025901;28;20201;-70
2021/11/03 11:49:01;;;;;;;0.00;0.00;;;;;;;;;;5025960;28;20572;-73
2021/11/03 11:51:31;;;;;;;0.40;0.40;;;;;;;;;;5018803;28;20211;-70
2021/11/03 11:54:24;;;;;;;0.00;0.00;;;;;;;;;;5021717;28;20254;-70
2021/11/03 11:57:10;;;;;;;0.00;0.00;;;;;;;;;;5025981;28;20212;-70
2021/11/03 11:59:52;;;;;;;0.00;0.00;;;;;;;;;;5024635;28;20208;-70
2021/11/03 12:02:23;;;;;;;0.00;0.00;;;;;;;;;;5022879;28;20223;-70
2021/11/03 12:04:50;;;;;;;0.00;0.00;;;;;;;;;;5020837;28;20204;-70
2021/11/03 12:07:23;;;;;;;0.00;0.00;;;;;;;;;;5024908;28;20298;-70
2021/11/03 12:10:14;;;;;;;0.00;0.00;;;;;;;;;;5020134;28;20653;-70
2021/11/03 12:12:56;;;;;;;0.00;0.00;;;;;;;;;;5022713;28;20668;-71
2021/11/03 12:15:38;;;;;;;0.00;0.00;;;;;;;;;;5025674;28;20212;-68
2021/11/03 12:18:15;;;;;;;0.00;0.00;;;;;;;;;;5019867;28;20631;-68
2021/11/03 12:20:54;;;;;;;0.00;0.00;;;;;;;;;;5020168;28;20358;-69
2021/11/03 12:23:45;;;;;;;0.00;0.00;;;;;;;;;;5020306;28;20230;-68
2021/11/03 12:26:34;;;;;;;0.20;0.20;;;;;;;;;;5023062;28;20219;-68
2021/11/03 12:29:03;;;;;;;0.00;0.00;;;;;;;;;;5015747;28;20203;-68
2021/11/03 12:31:32;;;;;;;0.00;0.00;;;;;;;;;;5021706;28;20245;-68
2021/11/03 12:34:18;;;;;;;0.00;0.00;;;;;;;;;;5023148;28;21034;-68
2021/11/03 12:37:08;;;;;;;0.00;0.00;;;;;;;;;;5020182;28;20236;-68
2021/11/03 12:39:55;;;;;;;0.00;0.00;;;;;;;;;;4990292;28;20208;-67
2021/11/03 12:42:24;;;;;;;0.00;0.00;;;;;;;;;;5023027;28;20199;-67
2021/11/03 12:44:54;;;;;;;0.00;0.00;;;;;;;;;;5021976;28;20204;-68
2021/11/03 12:47:24;;;;;;;0.00;0.00;;;;;;;;;;5021703;28;20208;-68
2021/11/03 12:50:08;;;;;;;0.00;0.00;;;;;;;;;;5027073;28;20644;-68
2021/11/03 12:52:41;;;;;;;0.00;0.00;;;;;;;;;;5029236;28;20577;-68
2021/11/03 12:55:22;;;;;;;0.00;0.00;;;;;;;;;;5024845;28;20291;-68
2021/11/03 12:57:54;;;;;;;0.00;0.00;;;;;;;;;;5023867;28;20232;-68
2021/11/03 13:00:28;;;;;;;0.08;0.08;;;;;;;;;;5020068;28;20201;-68
2021/11/03 13:03:01;;;;;;;0.00;0.00;;;;;;;;;;5022300;28;20299;-70
2021/11/03 13:05:33;;;;;;;0.00;0.00;;;;;;;;;;5025199;28;20204;-70
2021/11/03 13:08:06;;;;;;;0.00;0.00;;;;;;;;;;5007975;28;20326;-70
2021/11/03 13:10:37;;;;;;;0.00;0.00;;;;;;;;;;5023263;28;20205;-71
2021/11/03 13:13:07;;;;;;;0.00;0.00;;;;;;;;;;5024357;28;20208;-70
2021/11/03 13:15:36;;;;;;;0.00;0.00;;;;;;;;;;5025775;28;20201;-72
2021/11/03 13:18:16;;;;;;;0.00;0.00;;;;;;;;;;5021700;28;20211;-69
2021/11/03 13:20:56;;;;;;;1.80;1.60;;;;;;;;;;5009394;28;20689;-72
2021/11/03 13:23:28;;;;;;;0.00;0.00;;;;;;;;;;5023873;28;20238;-69
2021/11/03 13:26:05;;;;;;;0.00;0.00;;;;;;;;;;5019536;28;20212;-70
2021/11/03 13:28:36;;;;;;;0.00;0.00;;;;;;;;;;5004428;28;20192;-71
2021/11/03 13:31:08;;;;;;;0.00;0.00;;;;;;;;;;5017876;28;20239;-69
2021/11/03 13:33:39;;;;;;;11.90;11.07;;;;;;;;;;5020456;28;20239;-70
2021/11/03 13:36:19;;;;;;;0.00;0.00;;;;;;;;;;5021726;28;20212;-69
2021/11/03 13:38:55;;;;;;;0.00;0.00;;;;;;;;;;5022103;28;20295;-69
2021/11/03 13:41:34;;;;;;;0.00;0.00;;;;;;;;;;5020670;28;20200;-70
2021/11/03 13:44:22;;;;;;;0.00;0.00;;;;;;;;;;5021468;28;20205;-72
2021/11/03 13:46:59;;;;;;;0.00;0.00;;;;;;;;;;5003382;28;20278;-73
2021/11/03 13:49:37;;;;;;;0.00;0.00;;;;;;;;;;5023086;28;20211;-74
2021/11/03 13:52:21;;;;;;;0.00;0.00;;;;;;;;;;5020622;28;20772;-74
2021/11/03 13:54:54;;;;;;;0.00;0.00;;;;;;;;;;5022064;28;20234;-74
2021/11/03 13:57:30;;;;;;;0.00;0.00;;;;;;;;;;5014358;28;20204;-74
2021/11/03 14:00:01;;;;;;;0.00;0.00;;;;;;;;;;5028125;28;20204;-73
2021/11/03 14:02:38;;;;;;;0.00;0.00;;;;;;;;;;5028649;28;20208;-73
2021/11/03 14:05:23;;;;;;;0.00;0.00;;;;;;;;;;5025499;28;20266;-74
2021/11/03 14:07:55;;;;;;;0.00;0.00;;;;;;;;;;5021025;28;20668;-73
2021/11/03 14:10:25;;;;;;;0.00;0.00;;;;;;;;;;5021186;28;20379;-73
2021/11/03 14:12:59;;;;;;;0.00;0.00;;;;;;;;;;5021244;28;20222;-74
2021/11/03 14:15:29;;;;;;;0.00;0.00;;;;;;;;;;5020879;28;20216;-73
2021/11/03 14:17:58;;;;;;;0.00;0.00;;;;;;;;;;5002796;28;20262;-73
2021/11/03 14:20:34;;;;;;;0.00;0.00;;;;;;;;;;5019707;28;20200;-74
2021/11/03 14:23:05;;;;;;;0.00;0.00;;;;;;;;;;5021501;28;20691;-73
2021/11/03 14:25:41;;;;;;;0.00;0.00;;;;;;;;;;5020333;28;20247;-73
2021/11/03 14:28:14;;;;;;;0.00;0.00;;;;;;;;;;5019796;28;20222;-74
2021/11/03 14:30:48;;;;;;;0.00;0.00;;;;;;;;;;5021281;28;20713;-74
2021/11/03 14:33:23;;;;;;;0.00;0.00;;;;;;;;;;5000689;28;21293;-73
2021/11/03 14:35:52;;;;;;;0.00;0.00;;;;;;;;;;5000633;28;20294;-72
2021/11/03 14:38:23;;;;;;;0.00;0.00;;;;;;;;;;5024620;28;20804;-73
2021/11/03 14:40:51;;;;;;;0.00;0.00;;;;;;;;;;5023384;28;20224;-73
2021/11/03 14:43:20;;;;;;;0.00;0.00;;;;;;;;;;5025497;28;20215;-73
2021/11/03 14:45:48;;;;;;;0.00;0.00;;;;;;;;;;5026596;28;20207;-73
2021/11/03 14:48:17;;;;;;;0.00;0.00;;;;;;;;;;5020156;28;20233;-73
2021/11/03 14:50:45;;;;;;;0.00;0.00;;;;;;;;;;5022807;28;20201;-72
2021/11/03 14:53:17;;;;;;;0.00;0.00;;;;;;;;;;5026177;28;20211;-74
2021/11/03 14:55:48;;;;;;;0.00;0.00;;;;;;;;;;5023097;28;20755;-74
2021/11/03 14:58:35;;;;;;;0.00;0.00;;;;;;;;;;5023082;28;20216;-74
2021/11/03 15:01:45;;;;;;;0.00;0.00;;;;;;;;;;5017827;28;20203;-74